sensor_id;sensor_type;location;lat;lon;timestamp;pressure;altitude;pressure_sealevel;temperature;humidity
33697;BME280;20031;43.416;23.232;2023-03-03T00:01:31;100448.97;;;4.12;93.85
33697;BME280;20031;43.416;23.232;2023-03-03T00:03:57;100454.13;;;4.12;93.42
33697;BME280;20031;43.416;23.232;2023-03-03T00:06:23;100448.06;;;4.13;93.99
33697;BME280;20031;43.416;23.232;2023-03-03T00:08:49;100452.28;;;4.14;93.90
33697;BME280;20031;43.416;23.232;2023-03-03T00:11:15;100446.09;;;4.16;93.70
33697;BME280;20031;43.416;23.232;2023-03-03T00:13:50;100437.31;;;4.19;93.61
33697;BME280;20031;43.416;23.232;2023-03-03T00:18:53;100436.41;;;4.20;93.73
33697;BME280;20031;43.416;23.232;2023-03-03T00:21:30;100435.47;;;4.21;93.80
33697;BME280;20031;43.416;23.232;2023-03-03T00:26:55;100434.03;;;4.17;93.60
33697;BME280;20031;43.416;23.232;2023-03-03T00:29:26;100428.16;;;4.15;94.14
33697;BME280;20031;43.416;23.232;2023-03-03T00:31:53;100423.09;;;4.13;93.64
33697;BME280;20031;43.416;23.232;2023-03-03T00:34:26;100427.56;;;4.11;93.70
33697;BME280;20031;43.416;23.232;2023-03-03T00:36:54;100414.56;;;4.13;94.36
33697;BME280;20031;43.416;23.232;2023-03-03T00:39:30;100412.91;;;4.12;93.70
33697;BME280;20031;43.416;23.232;2023-03-03T00:41:58;100412.91;;;4.12;93.80
33697;BME280;20031;43.416;23.232;2023-03-03T00:47:31;100407.88;;;4.10;93.82
33697;BME280;20031;43.416;23.232;2023-03-03T00:52:37;100403.56;;;4.11;94.34
33697;BME280;20031;43.416;23.232;2023-03-03T00:55:05;100408.50;;;4.14;93.72
33697;BME280;20031;43.416;23.232;2023-03-03T00:57:30;100404.25;;;4.13;93.83
33697;BME280;20031;43.416;23.232;2023-03-03T00:59:56;100400.97;;;4.11;94.18
33697;BME280;20031;43.416;23.232;2023-03-03T01:02:21;100397.44;;;4.12;93.94
33697;BME280;20031;43.416;23.232;2023-03-03T01:04:51;100399.09;;;4.13;93.69
33697;BME280;20031;43.416;23.232;2023-03-03T01:07:17;100387.16;;;4.12;93.99
33697;BME280;20031;43.416;23.232;2023-03-03T01:09:43;100388.69;;;4.14;94.35
33697;BME280;20031;43.416;23.232;2023-03-03T01:12:09;100393.50;;;4.19;94.14
33697;BME280;20031;43.416;23.232;2023-03-03T01:14:34;100378.03;;;4.19;94.43
33697;BME280;20031;43.416;23.232;2023-03-03T01:17:01;100384.75;;;4.21;94.30
33697;BME280;20031;43.416;23.232;2023-03-03T01:19:27;100382.16;;;4.21;94.37
33697;BME280;20031;43.416;23.232;2023-03-03T01:21:52;100388.84;;;4.24;93.67
33697;BME280;20031;43.416;23.232;2023-03-03T01:24:18;100387.91;;;4.25;94.31
33697;BME280;20031;43.416;23.232;2023-03-03T01:26:43;100381.13;;;4.24;93.78
33697;BME280;20031;43.416;23.232;2023-03-03T01:29:09;100385.53;;;4.22;94.00
33697;BME280;20031;43.416;23.232;2023-03-03T01:31:34;100387.19;;;4.23;94.20
33697;BME280;20031;43.416;23.232;2023-03-03T01:34:00;100384.63;;;4.23;93.65
33697;BME280;20031;43.416;23.232;2023-03-03T01:36:26;100380.63;;;4.19;93.98
33697;BME280;20031;43.416;23.232;2023-03-03T01:38:52;100382.50;;;4.17;93.87
33697;BME280;20031;43.416;23.232;2023-03-03T01:41:18;100386.91;;;4.15;94.02
33697;BME280;20031;43.416;23.232;2023-03-03T01:43:45;100374.78;;;4.17;93.65
33697;BME280;20031;43.416;23.232;2023-03-03T01:48:51;100375.69;;;4.16;93.28
33697;BME280;20031;43.416;23.232;2023-03-03T01:51:27;100373.13;;;4.16;93.94
33697;BME280;20031;43.416;23.232;2023-03-03T01:53:56;100376.41;;;4.18;93.75
33697;BME280;20031;43.416;23.232;2023-03-03T01:56:23;100371.25;;;4.18;94.11
33697;BME280;20031;43.416;23.232;2023-03-03T01:58:53;100367.97;;;4.16;93.96
33697;BME280;20031;43.416;23.232;2023-03-03T02:01:24;100364.47;;;4.17;93.59
33697;BME280;20031;43.416;23.232;2023-03-03T02:03:51;100365.16;;;4.19;93.87
33697;BME280;20031;43.416;23.232;2023-03-03T02:06:20;100364.47;;;4.17;94.01
33697;BME280;20031;43.416;23.232;2023-03-03T02:08:58;100359.31;;;4.17;93.80
33697;BME280;20031;43.416;23.232;2023-03-03T02:11:25;100360.13;;;4.17;93.22
33697;BME280;20031;43.416;23.232;2023-03-03T02:13:53;100352.50;;;4.16;93.25
33697;BME280;20031;43.416;23.232;2023-03-03T02:16:19;100351.81;;;4.14;93.26
33697;BME280;20031;43.416;23.232;2023-03-03T02:18:44;100352.03;;;4.11;93.96
33697;BME280;20031;43.416;23.232;2023-03-03T02:21:15;100359.53;;;4.14;93.74
33697;BME280;20031;43.416;23.232;2023-03-03T02:23:49;100350.16;;;4.13;93.42
33697;BME280;20031;43.416;23.232;2023-03-03T02:26:18;100347.34;;;4.16;93.44
33697;BME280;20031;43.416;23.232;2023-03-03T02:28:47;100346.41;;;4.17;93.66
33697;BME280;20031;43.416;23.232;2023-03-03T02:31:16;100349.81;;;4.17;93.59
33697;BME280;20031;43.416;23.232;2023-03-03T02:33:44;100349.69;;;4.19;94.00
33697;BME280;20031;43.416;23.232;2023-03-03T02:36:19;100349.00;;;4.17;93.67
33697;BME280;20031;43.416;23.232;2023-03-03T02:39:04;100350.66;;;4.18;93.64
33697;BME280;20031;43.416;23.232;2023-03-03T02:41:33;100349.69;;;4.19;93.51
33697;BME280;20031;43.416;23.232;2023-03-03T02:44:08;100350.31;;;4.22;93.82
33697;BME280;20031;43.416;23.232;2023-03-03T02:46:36;100347.84;;;4.21;93.85
33697;BME280;20031;43.416;23.232;2023-03-03T02:49:04;100350.44;;;4.21;93.91
33697;BME280;20031;43.416;23.232;2023-03-03T02:51:30;100347.00;;;4.20;93.64
33697;BME280;20031;43.416;23.232;2023-03-03T02:53:56;100349.47;;;4.22;93.90
33697;BME280;20031;43.416;23.232;2023-03-03T02:56:21;100340.94;;;4.21;93.54
33697;BME280;20031;43.416;23.232;2023-03-03T02:58:47;100339.28;;;4.20;94.08
33697;BME280;20031;43.416;23.232;2023-03-03T03:01:13;100334.00;;;4.22;93.93
33697;BME280;20031;43.416;23.232;2023-03-03T03:03:38;100352.28;;;4.19;93.62
33697;BME280;20031;43.416;23.232;2023-03-03T03:06:04;100347.97;;;4.19;94.00
33697;BME280;20031;43.416;23.232;2023-03-03T03:08:29;100353.00;;;4.21;94.10
33697;BME280;20031;43.416;23.232;2023-03-03T03:10:55;100334.97;;;4.21;94.22
33697;BME280;20031;43.416;23.232;2023-03-03T03:13:22;100337.31;;;4.24;93.75
33697;BME280;20031;43.416;23.232;2023-03-03T03:15:47;100333.88;;;4.23;94.14
33697;BME280;20031;43.416;23.232;2023-03-03T03:18:14;100330.41;;;4.24;94.27
33697;BME280;20031;43.416;23.232;2023-03-03T03:20:40;100343.28;;;4.24;93.78
33697;BME280;20031;43.416;23.232;2023-03-03T03:23:06;100334.97;;;4.21;93.42
33697;BME280;20031;43.416;23.232;2023-03-03T03:25:32;100339.16;;;4.22;93.47
33697;BME280;20031;43.416;23.232;2023-03-03T03:27:57;100327.94;;;4.23;93.59
33697;BME280;20031;43.416;23.232;2023-03-03T03:30:23;100327.94;;;4.23;93.43
33697;BME280;20031;43.416;23.232;2023-03-03T03:32:48;100324.44;;;4.24;93.70
33697;BME280;20031;43.416;23.232;2023-03-03T03:35:14;100325.97;;;4.26;94.00
33697;BME280;20031;43.416;23.232;2023-03-03T03:37:41;100318.31;;;4.25;93.44
33697;BME280;20031;43.416;23.232;2023-03-03T03:40:07;100319.16;;;4.25;93.38
33697;BME280;20031;43.416;23.232;2023-03-03T03:42:32;100316.47;;;4.27;93.75
33697;BME280;20031;43.416;23.232;2023-03-03T03:44:58;100313.88;;;4.27;94.04
33697;BME280;20031;43.416;23.232;2023-03-03T03:47:23;100317.38;;;4.26;93.76
33697;BME280;20031;43.416;23.232;2023-03-03T03:49:49;100309.66;;;4.26;93.72
33697;BME280;20031;43.416;23.232;2023-03-03T03:52:14;100313.88;;;4.27;93.72
33697;BME280;20031;43.416;23.232;2023-03-03T03:54:39;100311.19;;;4.28;93.82
33697;BME280;20031;43.416;23.232;2023-03-03T03:57:05;100308.50;;;4.30;93.59
33697;BME280;20031;43.416;23.232;2023-03-03T03:59:31;100305.22;;;4.28;93.32
33697;BME280;20031;43.416;23.232;2023-03-03T04:01:56;100298.31;;;4.28;93.94
33697;BME280;20031;43.416;23.232;2023-03-03T04:04:22;100289.75;;;4.28;93.83
33697;BME280;20031;43.416;23.232;2023-03-03T04:06:47;100293.97;;;4.29;93.33
33697;BME280;20031;43.416;23.232;2023-03-03T04:09:14;100289.53;;;4.31;93.58
33697;BME280;20031;43.416;23.232;2023-03-03T04:11:39;100287.78;;;4.31;93.61
33697;BME280;20031;43.416;23.232;2023-03-03T04:14:06;100298.19;;;4.30;93.36
33697;BME280;20031;43.416;23.232;2023-03-03T04:16:31;100282.72;;;4.30;93.63
33697;BME280;20031;43.416;23.232;2023-03-03T04:18:57;100286.00;;;4.32;93.21
33697;BME280;20031;43.416;23.232;2023-03-03T04:21:23;100293.03;;;4.30;93.20
33697;BME280;20031;43.416;23.232;2023-03-03T04:23:49;100281.81;;;4.31;93.02
33697;BME280;20031;43.416;23.232;2023-03-03T04:26:14;100286.00;;;4.32;93.27
33697;BME280;20031;43.416;23.232;2023-03-03T04:28:40;100293.03;;;4.30;93.43
33697;BME280;20031;43.416;23.232;2023-03-03T04:31:06;100280.16;;;4.30;93.23
33697;BME280;20031;43.416;23.232;2023-03-03T04:33:31;100285.19;;;4.31;93.60
33697;BME280;20031;43.416;23.232;2023-03-03T04:35:57;100285.88;;;4.33;93.03
33697;BME280;20031;43.416;23.232;2023-03-03T04:38:22;100275.69;;;4.32;93.41
33697;BME280;20031;43.416;23.232;2023-03-03T04:40:47;100281.22;;;4.38;93.08
33697;BME280;20031;43.416;23.232;2023-03-03T04:43:13;100280.06;;;4.42;93.46
33697;BME280;20031;43.416;23.232;2023-03-03T04:45:39;100274.69;;;4.45;93.52
33697;BME280;20031;43.416;23.232;2023-03-03T04:48:05;100274.56;;;4.47;92.72
33697;BME280;20031;43.416;23.232;2023-03-03T04:50:30;100272.69;;;4.49;93.10
33697;BME280;20031;43.416;23.232;2023-03-03T04:52:56;100271.75;;;4.50;93.06
33697;BME280;20031;43.416;23.232;2023-03-03T04:55:21;100275.97;;;4.51;93.01
33697;BME280;20031;43.416;23.232;2023-03-03T04:57:46;100271.88;;;4.48;93.25
33697;BME280;20031;43.416;23.232;2023-03-03T05:00:14;100282.75;;;4.52;93.40
33697;BME280;20031;43.416;23.232;2023-03-03T05:02:40;100278.44;;;4.52;93.38
33697;BME280;20031;43.416;23.232;2023-03-03T05:05:06;100274.34;;;4.50;93.07
33697;BME280;20031;43.416;23.232;2023-03-03T05:07:34;100274.34;;;4.50;92.79
33697;BME280;20031;43.416;23.232;2023-03-03T05:09:59;100271.06;;;4.48;92.56
33697;BME280;20031;43.416;23.232;2023-03-03T05:12:24;100276.78;;;4.51;92.62
33697;BME280;20031;43.416;23.232;2023-03-03T05:14:51;100270.81;;;4.51;92.68
33697;BME280;20031;43.416;23.232;2023-03-03T05:17:16;100271.88;;;4.48;93.00
33697;BME280;20031;43.416;23.232;2023-03-03T05:19:41;100274.34;;;4.50;92.72
33697;BME280;20031;43.416;23.232;2023-03-03T05:22:07;100271.63;;;4.51;92.54
33697;BME280;20031;43.416;23.232;2023-03-03T05:24:32;100268.81;;;4.54;93.00
33697;BME280;20031;43.416;23.232;2023-03-03T05:26:58;100275.41;;;4.58;93.31
33697;BME280;20031;43.416;23.232;2023-03-03T05:29:23;100270.94;;;4.60;92.83
33697;BME280;20031;43.416;23.232;2023-03-03T05:31:49;100270.94;;;4.60;93.15
33697;BME280;20031;43.416;23.232;2023-03-03T05:34:14;100268.47;;;4.58;93.04
33697;BME280;20031;43.416;23.232;2023-03-03T05:36:40;100275.41;;;4.58;92.90
33697;BME280;20031;43.416;23.232;2023-03-03T05:39:05;100275.97;;;4.61;93.10
33697;BME280;20031;43.416;23.232;2023-03-03T05:41:31;100275.16;;;4.61;93.37
33697;BME280;20031;43.416;23.232;2023-03-03T05:43:56;100268.00;;;4.64;93.06
33697;BME280;20031;43.416;23.232;2023-03-03T05:46:22;100284.09;;;4.68;92.75
33697;BME280;20031;43.416;23.232;2023-03-03T05:48:47;100273.75;;;4.68;92.47
33697;BME280;20031;43.416;23.232;2023-03-03T05:51:13;100282.19;;;4.70;93.13
33697;BME280;20031;43.416;23.232;2023-03-03T05:53:38;100274.09;;;4.74;93.46
33697;BME280;20031;43.416;23.232;2023-03-03T05:56:04;100278.22;;;4.77;92.91
33697;BME280;20031;43.416;23.232;2023-03-03T05:58:29;100281.53;;;4.79;92.90
33697;BME280;20031;43.416;23.232;2023-03-03T06:00:55;100281.63;;;4.77;92.78
33697;BME280;20031;43.416;23.232;2023-03-03T06:03:21;100275.53;;;4.78;92.11
33697;BME280;20031;43.416;23.232;2023-03-03T06:05:46;100283.25;;;4.78;92.39
33697;BME280;20031;43.416;23.232;2023-03-03T06:08:12;100280.56;;;4.80;92.91
33697;BME280;20031;43.416;23.232;2023-03-03T06:10:37;100280.56;;;4.80;92.54
33697;BME280;20031;43.416;23.232;2023-03-03T06:13:03;100281.63;;;4.88;92.60
33697;BME280;20031;43.416;23.232;2023-03-03T06:15:28;100275.97;;;4.94;92.52
33697;BME280;20031;43.416;23.232;2023-03-03T06:17:54;100278.00;;;5.02;93.01
33697;BME280;20031;43.416;23.232;2023-03-03T06:20:19;100281.38;;;5.02;92.31
33697;BME280;20031;43.416;23.232;2023-03-03T06:22:45;100283.97;;;5.02;92.30
33697;BME280;20031;43.416;23.232;2023-03-03T06:25:10;100284.31;;;4.98;91.69
33697;BME280;20031;43.416;23.232;2023-03-03T06:27:36;100279.75;;;5.01;92.55
33697;BME280;20031;43.416;23.232;2023-03-03T06:30:01;100285.50;;;5.05;92.23
33697;BME280;20031;43.416;23.232;2023-03-03T06:32:27;100287.03;;;5.07;92.31
33697;BME280;20031;43.416;23.232;2023-03-03T06:34:52;100281.50;;;5.11;91.93
33697;BME280;20031;43.416;23.232;2023-03-03T06:37:18;100279.50;;;5.15;92.25
33697;BME280;20031;43.416;23.232;2023-03-03T06:39:43;100282.31;;;5.23;91.78
33697;BME280;20031;43.416;23.232;2023-03-03T06:42:09;100281.59;;;5.32;92.25
33697;BME280;20031;43.416;23.232;2023-03-03T06:44:35;100284.63;;;5.37;91.66
33697;BME280;20031;43.416;23.232;2023-03-03T06:47:00;100284.03;;;5.44;91.85
33697;BME280;20031;43.416;23.232;2023-03-03T06:49:26;100283.41;;;5.52;91.96
33697;BME280;20031;43.416;23.232;2023-03-03T06:51:51;100284.69;;;5.57;91.31
33697;BME280;20031;43.416;23.232;2023-03-03T06:54:19;100288.31;;;5.65;91.39
33697;BME280;20031;43.416;23.232;2023-03-03T06:56:46;100288.75;;;5.70;90.68
33697;BME280;20031;43.416;23.232;2023-03-03T06:59:20;100279.13;;;5.83;90.90
33697;BME280;20031;43.416;23.232;2023-03-03T07:01:48;100287.09;;;5.91;90.24
33697;BME280;20031;43.416;23.232;2023-03-03T07:04:24;100279.28;;;6.02;90.43
33697;BME280;20031;43.416;23.232;2023-03-03T07:06:56;100287.72;;;6.04;89.91
33697;BME280;20031;43.416;23.232;2023-03-03T07:09:27;100285.81;;;6.06;88.93
33697;BME280;20031;43.416;23.232;2023-03-03T07:12:01;100287.94;;;6.12;89.07
33697;BME280;20031;43.416;23.232;2023-03-03T07:14:28;100286.97;;;6.13;89.10
33697;BME280;20031;43.416;23.232;2023-03-03T07:16:59;100278.09;;;6.26;89.30
33697;BME280;20031;43.416;23.232;2023-03-03T07:19:33;100285.72;;;6.28;87.92
33697;BME280;20031;43.416;23.232;2023-03-03T07:22:20;100279.16;;;6.24;87.89
33697;BME280;20031;43.416;23.232;2023-03-03T07:24:58;100286.00;;;6.25;87.75
33697;BME280;20031;43.416;23.232;2023-03-03T07:27:30;100282.22;;;6.29;87.54
33697;BME280;20031;43.416;23.232;2023-03-03T07:30:19;100277.72;;;6.31;87.01
33697;BME280;20031;43.416;23.232;2023-03-03T07:32:47;100279.25;;;6.33;86.55
33697;BME280;20031;43.416;23.232;2023-03-03T07:35:35;100268.00;;;6.44;86.34
33697;BME280;20031;43.416;23.232;2023-03-03T07:40:53;100268.81;;;6.64;85.76
33697;BME280;20031;43.416;23.232;2023-03-03T07:48:40;100262.25;;;6.90;84.86
33697;BME280;20031;43.416;23.232;2023-03-03T07:51:38;100264.31;;;6.96;84.04
33697;BME280;20031;43.416;23.232;2023-03-03T07:54:16;100262.66;;;6.95;83.83
33697;BME280;20031;43.416;23.232;2023-03-03T07:56:42;100264.75;;;7.01;82.99
33697;BME280;20031;43.416;23.232;2023-03-03T08:05:24;100265.38;;;6.94;81.67
33697;BME280;20031;43.416;23.232;2023-03-03T08:07:51;100263.50;;;7.05;81.51
33697;BME280;20031;43.416;23.232;2023-03-03T08:10:30;100259.03;;;7.07;81.08
33697;BME280;20031;43.416;23.232;2023-03-03T08:13:00;100249.09;;;7.12;81.00
33697;BME280;20031;43.416;23.232;2023-03-03T08:15:35;100265.22;;;7.25;81.19
33697;BME280;20031;43.416;23.232;2023-03-03T08:18:01;100259.25;;;7.34;80.35
33697;BME280;20031;43.416;23.232;2023-03-03T08:21:02;100247.25;;;7.33;79.28
33697;BME280;20031;43.416;23.232;2023-03-03T08:23:27;100247.25;;;7.33;79.40
33697;BME280;20031;43.416;23.232;2023-03-03T08:25:53;100252.44;;;7.42;79.29
33697;BME280;20031;43.416;23.232;2023-03-03T08:28:19;100254.19;;;7.42;78.38
33697;BME280;20031;43.416;23.232;2023-03-03T08:30:45;100255.41;;;7.38;78.38
33697;BME280;20031;43.416;23.232;2023-03-03T08:33:11;100252.69;;;7.39;78.25
33697;BME280;20031;43.416;23.232;2023-03-03T08:35:37;100246.31;;;7.34;78.06
33697;BME280;20031;43.416;23.232;2023-03-03T08:38:03;100245.91;;;7.38;77.88
33697;BME280;20031;43.416;23.232;2023-03-03T08:40:29;100251.06;;;7.48;78.42
33697;BME280;20031;43.416;23.232;2023-03-03T08:42:54;100251.06;;;7.48;77.63
33697;BME280;20031;43.416;23.232;2023-03-03T08:45:20;100245.50;;;7.52;78.14
33697;BME280;20031;43.416;23.232;2023-03-03T08:47:45;100251.38;;;7.63;78.00
33697;BME280;20031;43.416;23.232;2023-03-03T08:50:12;100252.47;;;7.70;77.85
33697;BME280;20031;43.416;23.232;2023-03-03T08:52:37;100243.47;;;7.74;77.86
33697;BME280;20031;43.416;23.232;2023-03-03T08:55:04;100246.63;;;7.78;77.01
33697;BME280;20031;43.416;23.232;2023-03-03T08:57:29;100248.78;;;7.82;76.59
33697;BME280;20031;43.416;23.232;2023-03-03T08:59:55;100248.38;;;7.77;76.76
33697;BME280;20031;43.416;23.232;2023-03-03T09:02:35;100239.25;;;7.73;75.70
33697;BME280;20031;43.416;23.232;2023-03-03T09:05:00;100246.59;;;7.68;76.35
33697;BME280;20031;43.416;23.232;2023-03-03T09:07:26;100242.09;;;7.70;76.70
33697;BME280;20031;43.416;23.232;2023-03-03T09:09:51;100241.97;;;7.72;76.67
33697;BME280;20031;43.416;23.232;2023-03-03T09:14:42;100243.34;;;7.66;76.04
33697;BME280;20031;43.416;23.232;2023-03-03T09:17:34;100233.63;;;7.50;76.50
33697;BME280;20031;43.416;23.232;2023-03-03T09:22:43;100231.31;;;7.47;77.18
33697;BME280;20031;43.416;23.232;2023-03-03T09:25:43;100241.69;;;7.47;77.34
33697;BME280;20031;43.416;23.232;2023-03-03T09:28:29;100230.34;;;7.48;77.36
33697;BME280;20031;43.416;23.232;2023-03-03T09:31:00;100236.06;;;7.42;77.63
33697;BME280;20031;43.416;23.232;2023-03-03T09:33:43;100231.72;;;7.52;78.24
33697;BME280;20031;43.416;23.232;2023-03-03T09:36:28;100237.34;;;7.57;77.78
33697;BME280;20031;43.416;23.232;2023-03-03T09:38:55;100231.75;;;7.61;77.35
33697;BME280;20031;43.416;23.232;2023-03-03T09:44:46;100235.00;;;7.63;77.31
33697;BME280;20031;43.416;23.232;2023-03-03T09:57:59;100234.28;;;7.33;78.04
33697;BME280;20031;43.416;23.232;2023-03-03T10:12:02;100232.66;;;7.22;78.92
33697;BME280;20031;43.416;23.232;2023-03-03T10:14:37;100227.84;;;7.18;78.53
33697;BME280;20031;43.416;23.232;2023-03-03T10:20:21;100218.59;;;7.25;79.00
33697;BME280;20031;43.416;23.232;2023-03-03T10:22:53;100220.41;;;7.34;79.02
33697;BME280;20031;43.416;23.232;2023-03-03T10:31:04;100211.53;;;7.64;78.39
33697;BME280;20031;43.416;23.232;2023-03-03T10:39:30;100195.53;;;8.25;77.45
33697;BME280;20031;43.416;23.232;2023-03-03T10:49:47;100192.81;;;8.08;75.24
33697;BME280;20031;43.416;23.232;2023-03-03T11:06:21;100173.19;;;7.77;76.51
33697;BME280;20031;43.416;23.232;2023-03-03T11:09:02;100170.88;;;7.93;76.75
33697;BME280;20031;43.416;23.232;2023-03-03T11:19:54;100155.81;;;8.25;75.58
33697;BME280;20031;43.416;23.232;2023-03-03T11:22:41;100156.84;;;8.41;75.56
33697;BME280;20031;43.416;23.232;2023-03-03T11:31:05;100153.78;;;8.55;74.48
33697;BME280;20031;43.416;23.232;2023-03-03T11:40:57;100136.91;;;8.95;72.97
33697;BME280;20031;43.416;23.232;2023-03-03T11:43:43;100136.31;;;9.01;72.90
33697;BME280;20031;43.416;23.232;2023-03-03T11:46:21;100130.47;;;9.16;72.06
33697;BME280;20031;43.416;23.232;2023-03-03T11:49:03;100126.53;;;9.13;71.83
33697;BME280;20031;43.416;23.232;2023-03-03T11:57:30;100128.75;;;9.08;71.87
33697;BME280;20031;43.416;23.232;2023-03-03T12:00:05;100126.88;;;9.00;71.23
33697;BME280;20031;43.416;23.232;2023-03-03T12:13:32;100122.88;;;8.35;72.40
33697;BME280;20031;43.416;23.232;2023-03-03T12:18:53;100122.66;;;8.19;73.22
33697;BME280;20031;43.416;23.232;2023-03-03T12:24:29;100117.63;;;8.17;73.33
33697;BME280;20031;43.416;23.232;2023-03-03T12:27:00;100108.72;;;8.11;73.87
33697;BME280;20031;43.416;23.232;2023-03-03T12:30:02;100114.34;;;8.06;74.12
33697;BME280;20031;43.416;23.232;2023-03-03T12:41:56;100123.41;;;7.83;74.95
33697;BME280;20031;43.416;23.232;2023-03-03T12:44:42;100129.53;;;7.82;75.12
33697;BME280;20031;43.416;23.232;2023-03-03T12:47:16;100127.47;;;7.86;74.76
33697;BME280;20031;43.416;23.232;2023-03-03T12:58:27;100122.16;;;7.97;75.37
33697;BME280;20031;43.416;23.232;2023-03-03T13:01:32;100122.78;;;8.08;75.30
33697;BME280;20031;43.416;23.232;2023-03-03T13:04:40;100113.53;;;8.15;75.43
33697;BME280;20031;43.416;23.232;2023-03-03T13:13:00;100111.00;;;8.32;74.57
33697;BME280;20031;43.416;23.232;2023-03-03T13:15:31;100119.47;;;8.34;74.35
33697;BME280;20031;43.416;23.232;2023-03-03T13:18:10;100116.09;;;8.24;74.26
33697;BME280;20031;43.416;23.232;2023-03-03T13:25:59;100122.25;;;8.14;74.36
33697;BME280;20031;43.416;23.232;2023-03-03T13:28:36;100116.66;;;8.00;74.79
33697;BME280;20031;43.416;23.232;2023-03-03T13:33:39;100113.97;;;7.92;74.73
33697;BME280;20031;43.416;23.232;2023-03-03T13:36:13;100114.09;;;7.90;75.38
33697;BME280;20031;43.416;23.232;2023-03-03T13:38:48;100110.44;;;7.83;75.38
33697;BME280;20031;43.416;23.232;2023-03-03T13:41:30;100098.03;;;7.77;75.38
33697;BME280;20031;43.416;23.232;2023-03-03T13:44:09;100108.97;;;7.71;76.38
33697;BME280;20031;43.416;23.232;2023-03-03T13:52:19;100108.16;;;7.61;77.90
33697;BME280;20031;43.416;23.232;2023-03-03T13:55:14;100107.50;;;7.60;78.75
33697;BME280;20031;43.416;23.232;2023-03-03T13:57:50;100110.06;;;7.60;78.69
33697;BME280;20031;43.416;23.232;2023-03-03T14:03:21;100109.25;;;7.59;79.31
33697;BME280;20031;43.416;23.232;2023-03-03T14:05:56;100113.34;;;7.61;80.13
33697;BME280;20031;43.416;23.232;2023-03-03T14:16:56;100101.34;;;7.61;80.73
33697;BME280;20031;43.416;23.232;2023-03-03T14:24:21;100096.69;;;7.55;80.99
33697;BME280;20031;43.416;23.232;2023-03-03T14:26:50;100095.09;;;7.54;81.45
33697;BME280;20031;43.416;23.232;2023-03-03T14:31:53;100089.78;;;7.46;81.84
33697;BME280;20031;43.416;23.232;2023-03-03T14:36:49;100090.72;;;7.45;81.93
33697;BME280;20031;43.416;23.232;2023-03-03T14:39:36;100090.44;;;7.48;82.40
33697;BME280;20031;43.416;23.232;2023-03-03T14:42:29;100082.41;;;7.51;82.57
33697;BME280;20031;43.416;23.232;2023-03-03T14:44:56;100080.50;;;7.53;82.35
33697;BME280;20031;43.416;23.232;2023-03-03T14:47:26;100085.38;;;7.56;83.06
33697;BME280;20031;43.416;23.232;2023-03-03T14:49:53;100087.97;;;7.56;82.85
33697;BME280;20031;43.416;23.232;2023-03-03T14:52:22;100084.44;;;7.57;83.07
33697;BME280;20031;43.416;23.232;2023-03-03T14:54:56;100091.66;;;7.53;82.38
33697;BME280;20031;43.416;23.232;2023-03-03T14:57:39;100089.06;;;7.53;82.67
33697;BME280;20031;43.416;23.232;2023-03-03T15:05:19;100091.00;;;7.51;83.27
33697;BME280;20031;43.416;23.232;2023-03-03T15:07:50;100085.53;;;7.45;83.23
33697;BME280;20031;43.416;23.232;2023-03-03T15:10:38;100083.91;;;7.44;83.43
33697;BME280;20031;43.416;23.232;2023-03-03T15:18:26;100075.16;;;7.54;83.70
33697;BME280;20031;43.416;23.232;2023-03-03T15:23:57;100081.28;;;7.62;83.54
33697;BME280;20031;43.416;23.232;2023-03-03T15:34:56;100074.88;;;7.57;84.11
33697;BME280;20031;43.416;23.232;2023-03-03T15:56:57;100088.53;;;7.50;85.37
33697;BME280;20031;43.416;23.232;2023-03-03T15:59:48;100082.66;;;7.48;84.86
33697;BME280;20031;43.416;23.232;2023-03-03T16:02:21;100087.47;;;7.43;85.43
33697;BME280;20031;43.416;23.232;2023-03-03T16:05:01;100084.44;;;7.38;85.33
33697;BME280;20031;43.416;23.232;2023-03-03T16:10:40;100097.00;;;7.23;85.47
33697;BME280;20031;43.416;23.232;2023-03-03T16:16:19;100100.81;;;7.10;85.57
33697;BME280;20031;43.416;23.232;2023-03-03T16:19:10;100107.34;;;7.05;85.91
33697;BME280;20031;43.416;23.232;2023-03-03T16:24:38;100108.97;;;6.96;85.77
33697;BME280;20031;43.416;23.232;2023-03-03T16:32:55;100104.06;;;6.84;86.71
33697;BME280;20031;43.416;23.232;2023-03-03T16:35:32;100111.28;;;6.80;86.60
33697;BME280;20031;43.416;23.232;2023-03-03T16:40:32;100120.53;;;6.73;87.22
33697;BME280;20031;43.416;23.232;2023-03-03T16:45:39;100127.34;;;6.74;87.67
33697;BME280;20031;43.416;23.232;2023-03-03T16:48:41;100122.03;;;6.76;87.29
33697;BME280;20031;43.416;23.232;2023-03-03T16:51:16;100129.09;;;6.74;87.75
33697;BME280;20031;43.416;23.232;2023-03-03T16:56:54;100136.84;;;6.74;88.23
33697;BME280;20031;43.416;23.232;2023-03-03T17:16:01;100137.25;;;6.69;88.80
33697;BME280;20031;43.416;23.232;2023-03-03T17:18:51;100135.59;;;6.68;88.92
33697;BME280;20031;43.416;23.232;2023-03-03T17:43:16;100149.59;;;6.57;90.29
33697;BME280;20031;43.416;23.232;2023-03-03T17:45:46;100153.13;;;6.56;90.21
33697;BME280;20031;43.416;23.232;2023-03-03T18:00:05;100161.16;;;6.53;90.96
33697;BME280;20031;43.416;23.232;2023-03-03T18:05:35;100157.63;;;6.54;91.28
33697;BME280;20031;43.416;23.232;2023-03-03T18:08:26;100160.22;;;6.54;90.92
33697;BME280;20031;43.416;23.232;2023-03-03T18:11:33;100163.75;;;6.53;90.80
33697;BME280;20031;43.416;23.232;2023-03-03T18:22:44;100172.34;;;6.53;91.45
33697;BME280;20031;43.416;23.232;2023-03-03T18:25:13;100170.69;;;6.52;91.89
33697;BME280;20031;43.416;23.232;2023-03-03T18:27:43;100176.69;;;6.53;91.79
33697;BME280;20031;43.416;23.232;2023-03-03T18:33:02;100178.72;;;6.49;91.67
33697;BME280;20031;43.416;23.232;2023-03-03T18:35:45;100178.84;;;6.48;91.60